sensor_id;sensor_type;location;lat;lon;timestamp;P1;durP1;ratioP1;P2;durP2;ratioP2
8333;SDS011;4204;43.004;23.052;2023-03-14T00:00:07;4.67;;;3.60;;
8333;SDS011;4204;43.004;23.052;2023-03-14T00:02:36;3.87;;;3.20;;
8333;SDS011;4204;43.004;23.052;2023-03-14T00:05:04;5.30;;;3.63;;
8333;SDS011;4204;43.004;23.052;2023-03-14T00:07:33;3.97;;;3.30;;
8333;SDS011;4204;43.004;23.052;2023-03-14T00:10:02;5.53;;;3.50;;
8333;SDS011;4204;43.004;23.052;2023-03-14T00:12:31;4.70;;;3.23;;
8333;SDS011;4204;43.004;23.052;2023-03-14T00:14:59;5.40;;;3.30;;
8333;SDS011;4204;43.004;23.052;2023-03-14T00:17:30;4.57;;;3.30;;
8333;SDS011;4204;43.004;23.052;2023-03-14T00:19:58;7.77;;;3.83;;
8333;SDS011;4204;43.004;23.052;2023-03-14T00:22:34;4.80;;;3.40;;
8333;SDS011;4204;43.004;23.052;2023-03-14T00:25:01;4.40;;;3.30;;
8333;SDS011;4204;43.004;23.052;2023-03-14T00:27:30;5.17;;;3.93;;
8333;SDS011;4204;43.004;23.052;2023-03-14T00:29:58;4.43;;;3.40;;
8333;SDS011;4204;43.004;23.052;2023-03-14T00:32:26;7.43;;;4.53;;
8333;SDS011;4204;43.004;23.052;2023-03-14T00:34:55;4.37;;;3.00;;
8333;SDS011;4204;43.004;23.052;2023-03-14T00:37:23;4.53;;;3.50;;
8333;SDS011;4204;43.004;23.052;2023-03-14T00:39:51;5.80;;;4.47;;
8333;SDS011;4204;43.004;23.052;2023-03-14T00:42:19;6.27;;;5.17;;
8333;SDS011;4204;43.004;23.052;2023-03-14T00:44:46;3.73;;;3.20;;
8333;SDS011;4204;43.004;23.052;2023-03-14T00:47:14;6.40;;;4.47;;
8333;SDS011;4204;43.004;23.052;2023-03-14T00:49:42;6.50;;;4.30;;
8333;SDS011;4204;43.004;23.052;2023-03-14T00:52:13;9.40;;;5.57;;
8333;SDS011;4204;43.004;23.052;2023-03-14T00:54:41;18.80;;;10.73;;
8333;SDS011;4204;43.004;23.052;2023-03-14T00:57:08;17.37;;;10.67;;
8333;SDS011;4204;43.004;23.052;2023-03-14T00:59:36;20.53;;;10.10;;
8333;SDS011;4204;43.004;23.052;2023-03-14T01:02:04;14.30;;;8.47;;
8333;SDS011;4204;43.004;23.052;2023-03-14T01:04:32;17.07;;;9.20;;
8333;SDS011;4204;43.004;23.052;2023-03-14T01:07:00;17.70;;;10.73;;
8333;SDS011;4204;43.004;23.052;2023-03-14T01:09:29;19.73;;;10.17;;
8333;SDS011;4204;43.004;23.052;2023-03-14T01:11:57;14.87;;;8.77;;
8333;SDS011;4204;43.004;23.052;2023-03-14T01:14:25;11.30;;;6.73;;
8333;SDS011;4204;43.004;23.052;2023-03-14T01:16:53;9.53;;;5.77;;
8333;SDS011;4204;43.004;23.052;2023-03-14T01:19:26;9.33;;;5.77;;
8333;SDS011;4204;43.004;23.052;2023-03-14T01:21:54;9.40;;;6.73;;
8333;SDS011;4204;43.004;23.052;2023-03-14T01:24:22;17.97;;;8.10;;
8333;SDS011;4204;43.004;23.052;2023-03-14T01:26:51;9.87;;;6.53;;
8333;SDS011;4204;43.004;23.052;2023-03-14T01:29:19;8.60;;;5.60;;
8333;SDS011;4204;43.004;23.052;2023-03-14T01:31:47;7.50;;;4.70;;
8333;SDS011;4204;43.004;23.052;2023-03-14T01:34:15;5.77;;;4.23;;
8333;SDS011;4204;43.004;23.052;2023-03-14T01:36:43;6.23;;;4.60;;
8333;SDS011;4204;43.004;23.052;2023-03-14T01:39:11;7.47;;;4.37;;
8333;SDS011;4204;43.004;23.052;2023-03-14T01:41:39;4.73;;;3.57;;
8333;SDS011;4204;43.004;23.052;2023-03-14T01:44:10;4.93;;;3.57;;
8333;SDS011;4204;43.004;23.052;2023-03-14T01:46:39;6.03;;;3.97;;
8333;SDS011;4204;43.004;23.052;2023-03-14T01:49:17;5.00;;;3.90;;
8333;SDS011;4204;43.004;23.052;2023-03-14T01:51:56;4.20;;;3.37;;
8333;SDS011;4204;43.004;23.052;2023-03-14T01:54:27;5.77;;;3.97;;
8333;SDS011;4204;43.004;23.052;2023-03-14T01:57:02;4.83;;;3.27;;
8333;SDS011;4204;43.004;23.052;2023-03-14T01:59:35;4.77;;;3.53;;
8333;SDS011;4204;43.004;23.052;2023-03-14T02:02:05;6.00;;;3.77;;
8333;SDS011;4204;43.004;23.052;2023-03-14T02:04:36;5.90;;;3.80;;
8333;SDS011;4204;43.004;23.052;2023-03-14T02:07:07;5.50;;;3.90;;
8333;SDS011;4204;43.004;23.052;2023-03-14T02:09:44;5.30;;;3.70;;
8333;SDS011;4204;43.004;23.052;2023-03-14T02:12:20;5.77;;;3.97;;
8333;SDS011;4204;43.004;23.052;2023-03-14T02:15:28;7.83;;;3.97;;
8333;SDS011;4204;43.004;23.052;2023-03-14T02:18:05;4.77;;;3.37;;
8333;SDS011;4204;43.004;23.052;2023-03-14T02:20:48;4.93;;;3.70;;
8333;SDS011;4204;43.004;23.052;2023-03-14T02:23:34;6.23;;;4.33;;
8333;SDS011;4204;43.004;23.052;2023-03-14T02:26:12;8.03;;;3.77;;
8333;SDS011;4204;43.004;23.052;2023-03-14T02:28:44;4.63;;;3.57;;
8333;SDS011;4204;43.004;23.052;2023-03-14T02:31:12;5.17;;;3.53;;
8333;SDS011;4204;43.004;23.052;2023-03-14T02:33:41;6.43;;;4.00;;
8333;SDS011;4204;43.004;23.052;2023-03-14T02:36:10;4.83;;;3.40;;
8333;SDS011;4204;43.004;23.052;2023-03-14T02:38:41;5.23;;;3.67;;
8333;SDS011;4204;43.004;23.052;2023-03-14T02:41:14;5.00;;;3.87;;
8333;SDS011;4204;43.004;23.052;2023-03-14T02:43:52;6.53;;;4.23;;
8333;SDS011;4204;43.004;23.052;2023-03-14T02:46:20;6.13;;;4.23;;
8333;SDS011;4204;43.004;23.052;2023-03-14T02:48:50;7.43;;;4.83;;
8333;SDS011;4204;43.004;23.052;2023-03-14T02:51:20;6.57;;;4.10;;
8333;SDS011;4204;43.004;23.052;2023-03-14T02:53:49;5.70;;;3.80;;
8333;SDS011;4204;43.004;23.052;2023-03-14T02:56:17;5.30;;;3.20;;
8333;SDS011;4204;43.004;23.052;2023-03-14T02:58:45;5.43;;;3.30;;
8333;SDS011;4204;43.004;23.052;2023-03-14T03:01:36;6.13;;;3.70;;
8333;SDS011;4204;43.004;23.052;2023-03-14T03:04:04;5.23;;;3.53;;
8333;SDS011;4204;43.004;23.052;2023-03-14T03:06:32;7.30;;;3.97;;
8333;SDS011;4204;43.004;23.052;2023-03-14T03:09:00;4.33;;;3.17;;
8333;SDS011;4204;43.004;23.052;2023-03-14T03:11:29;5.10;;;3.70;;
8333;SDS011;4204;43.004;23.052;2023-03-14T03:13:58;7.37;;;4.40;;
8333;SDS011;4204;43.004;23.052;2023-03-14T03:16:27;5.80;;;3.93;;
8333;SDS011;4204;43.004;23.052;2023-03-14T03:18:57;7.63;;;4.70;;
8333;SDS011;4204;43.004;23.052;2023-03-14T03:21:24;9.03;;;4.80;;
8333;SDS011;4204;43.004;23.052;2023-03-14T03:23:52;7.80;;;4.50;;
8333;SDS011;4204;43.004;23.052;2023-03-14T03:26:20;5.30;;;3.37;;
8333;SDS011;4204;43.004;23.052;2023-03-14T03:28:49;5.23;;;3.67;;
8333;SDS011;4204;43.004;23.052;2023-03-14T03:31:17;8.80;;;4.77;;
8333;SDS011;4204;43.004;23.052;2023-03-14T03:33:46;7.33;;;4.17;;
8333;SDS011;4204;43.004;23.052;2023-03-14T03:36:17;6.70;;;4.13;;
8333;SDS011;4204;43.004;23.052;2023-03-14T03:38:48;4.67;;;3.80;;
8333;SDS011;4204;43.004;23.052;2023-03-14T03:41:16;4.80;;;3.20;;
8333;SDS011;4204;43.004;23.052;2023-03-14T03:43:44;4.27;;;3.30;;
8333;SDS011;4204;43.004;23.052;2023-03-14T03:46:15;5.40;;;3.47;;
8333;SDS011;4204;43.004;23.052;2023-03-14T03:48:42;5.73;;;3.60;;
8333;SDS011;4204;43.004;23.052;2023-03-14T03:51:11;7.20;;;3.57;;
8333;SDS011;4204;43.004;23.052;2023-03-14T03:53:42;5.67;;;3.30;;
8333;SDS011;4204;43.004;23.052;2023-03-14T03:56:12;6.83;;;3.63;;
8333;SDS011;4204;43.004;23.052;2023-03-14T03:58:42;6.10;;;3.90;;
8333;SDS011;4204;43.004;23.052;2023-03-14T04:01:10;4.70;;;3.03;;
8333;SDS011;4204;43.004;23.052;2023-03-14T04:03:37;3.43;;;2.57;;
8333;SDS011;4204;43.004;23.052;2023-03-14T04:06:07;4.47;;;3.03;;
8333;SDS011;4204;43.004;23.052;2023-03-14T04:08:38;5.67;;;3.40;;
8333;SDS011;4204;43.004;23.052;2023-03-14T04:11:09;4.40;;;3.37;;
8333;SDS011;4204;43.004;23.052;2023-03-14T04:13:57;6.30;;;3.37;;
8333;SDS011;4204;43.004;23.052;2023-03-14T04:16:25;3.77;;;2.77;;
8333;SDS011;4204;43.004;23.052;2023-03-14T04:19:00;4.10;;;3.13;;
8333;SDS011;4204;43.004;23.052;2023-03-14T04:21:30;5.30;;;3.40;;
8333;SDS011;4204;43.004;23.052;2023-03-14T04:23:57;5.93;;;3.20;;
8333;SDS011;4204;43.004;23.052;2023-03-14T04:26:30;6.47;;;3.00;;
8333;SDS011;4204;43.004;23.052;2023-03-14T04:28:58;3.63;;;2.80;;
8333;SDS011;4204;43.004;23.052;2023-03-14T04:31:26;4.77;;;3.00;;
8333;SDS011;4204;43.004;23.052;2023-03-14T04:33:54;3.60;;;2.90;;
8333;SDS011;4204;43.004;23.052;2023-03-14T04:36:32;4.33;;;3.07;;
8333;SDS011;4204;43.004;23.052;2023-03-14T04:39:04;5.47;;;3.00;;
8333;SDS011;4204;43.004;23.052;2023-03-14T04:41:35;3.37;;;2.77;;
8333;SDS011;4204;43.004;23.052;2023-03-14T04:44:04;4.37;;;2.83;;
8333;SDS011;4204;43.004;23.052;2023-03-14T04:46:32;4.80;;;3.67;;
8333;SDS011;4204;43.004;23.052;2023-03-14T04:49:00;6.80;;;3.50;;
8333;SDS011;4204;43.004;23.052;2023-03-14T04:51:28;5.13;;;3.00;;
8333;SDS011;4204;43.004;23.052;2023-03-14T04:53:56;4.77;;;3.40;;
8333;SDS011;4204;43.004;23.052;2023-03-14T04:56:24;5.03;;;3.23;;
8333;SDS011;4204;43.004;23.052;2023-03-14T04:58:53;6.40;;;3.43;;
8333;SDS011;4204;43.004;23.052;2023-03-14T05:01:21;4.80;;;3.10;;
8333;SDS011;4204;43.004;23.052;2023-03-14T05:04:05;3.70;;;2.87;;
8333;SDS011;4204;43.004;23.052;2023-03-14T05:06:55;5.00;;;3.17;;
8333;SDS011;4204;43.004;23.052;2023-03-14T05:09:46;6.93;;;3.47;;
8333;SDS011;4204;43.004;23.052;2023-03-14T05:12:40;4.17;;;2.80;;
8333;SDS011;4204;43.004;23.052;2023-03-14T05:15:27;5.13;;;3.50;;
8333;SDS011;4204;43.004;23.052;2023-03-14T05:18:24;5.43;;;3.33;;
8333;SDS011;4204;43.004;23.052;2023-03-14T05:21:05;9.50;;;4.20;;
8333;SDS011;4204;43.004;23.052;2023-03-14T05:23:51;4.83;;;3.23;;
8333;SDS011;4204;43.004;23.052;2023-03-14T05:26:37;6.20;;;3.37;;
8333;SDS011;4204;43.004;23.052;2023-03-14T05:29:37;8.30;;;4.90;;
8333;SDS011;4204;43.004;23.052;2023-03-14T05:32:38;6.77;;;4.30;;
8333;SDS011;4204;43.004;23.052;2023-03-14T05:35:35;10.50;;;5.73;;
8333;SDS011;4204;43.004;23.052;2023-03-14T05:38:23;10.07;;;5.80;;
8333;SDS011;4204;43.004;23.052;2023-03-14T05:41:14;9.30;;;5.30;;
8333;SDS011;4204;43.004;23.052;2023-03-14T05:44:17;9.13;;;4.00;;
8333;SDS011;4204;43.004;23.052;2023-03-14T05:47:00;6.07;;;4.37;;
8333;SDS011;4204;43.004;23.052;2023-03-14T05:49:47;10.73;;;5.50;;
8333;SDS011;4204;43.004;23.052;2023-03-14T05:52:41;16.20;;;9.00;;
8333;SDS011;4204;43.004;23.052;2023-03-14T05:55:28;11.40;;;7.50;;
8333;SDS011;4204;43.004;23.052;2023-03-14T05:58:10;10.33;;;6.67;;
8333;SDS011;4204;43.004;23.052;2023-03-14T06:01:04;5.33;;;3.57;;
8333;SDS011;4204;43.004;23.052;2023-03-14T06:03:52;8.73;;;3.83;;
8333;SDS011;4204;43.004;23.052;2023-03-14T06:06:22;4.83;;;3.60;;
8333;SDS011;4204;43.004;23.052;2023-03-14T06:08:50;4.40;;;3.30;;
8333;SDS011;4204;43.004;23.052;2023-03-14T06:11:17;5.30;;;3.83;;
8333;SDS011;4204;43.004;23.052;2023-03-14T06:13:46;9.47;;;4.93;;
8333;SDS011;4204;43.004;23.052;2023-03-14T06:16:14;6.50;;;4.33;;
8333;SDS011;4204;43.004;23.052;2023-03-14T06:18:42;5.87;;;3.87;;
8333;SDS011;4204;43.004;23.052;2023-03-14T06:21:13;5.70;;;3.50;;
8333;SDS011;4204;43.004;23.052;2023-03-14T06:23:42;5.17;;;3.43;;
8333;SDS011;4204;43.004;23.052;2023-03-14T06:26:10;5.53;;;3.37;;
8333;SDS011;4204;43.004;23.052;2023-03-14T06:28:38;4.73;;;3.30;;
8333;SDS011;4204;43.004;23.052;2023-03-14T06:31:06;4.37;;;3.40;;
8333;SDS011;4204;43.004;23.052;2023-03-14T06:33:42;7.27;;;4.70;;
8333;SDS011;4204;43.004;23.052;2023-03-14T06:36:10;4.80;;;3.23;;
8333;SDS011;4204;43.004;23.052;2023-03-14T06:38:42;5.03;;;3.63;;
8333;SDS011;4204;43.004;23.052;2023-03-14T06:41:10;5.40;;;3.23;;
8333;SDS011;4204;43.004;23.052;2023-03-14T06:43:41;4.57;;;3.03;;
8333;SDS011;4204;43.004;23.052;2023-03-14T06:46:09;4.63;;;3.37;;
8333;SDS011;4204;43.004;23.052;2023-03-14T06:48:39;4.00;;;2.97;;
8333;SDS011;4204;43.004;23.052;2023-03-14T06:51:07;4.50;;;3.03;;
8333;SDS011;4204;43.004;23.052;2023-03-14T06:53:35;7.83;;;3.70;;
8333;SDS011;4204;43.004;23.052;2023-03-14T06:56:05;9.30;;;3.77;;
8333;SDS011;4204;43.004;23.052;2023-03-14T06:58:34;3.47;;;3.00;;
8333;SDS011;4204;43.004;23.052;2023-03-14T07:01:05;6.77;;;3.70;;
8333;SDS011;4204;43.004;23.052;2023-03-14T07:03:43;7.97;;;3.87;;
8333;SDS011;4204;43.004;23.052;2023-03-14T07:06:11;4.17;;;3.03;;
8333;SDS011;4204;43.004;23.052;2023-03-14T07:08:39;7.57;;;3.50;;
8333;SDS011;4204;43.004;23.052;2023-03-14T07:11:09;6.77;;;3.77;;
8333;SDS011;4204;43.004;23.052;2023-03-14T07:13:37;6.20;;;3.63;;
8333;SDS011;4204;43.004;23.052;2023-03-14T07:16:07;5.23;;;3.27;;
8333;SDS011;4204;43.004;23.052;2023-03-14T07:18:37;4.50;;;3.70;;
8333;SDS011;4204;43.004;23.052;2023-03-14T07:21:06;9.33;;;3.50;;
8333;SDS011;4204;43.004;23.052;2023-03-14T07:23:36;5.20;;;3.17;;
8333;SDS011;4204;43.004;23.052;2023-03-14T07:26:04;4.37;;;3.17;;
8333;SDS011;4204;43.004;23.052;2023-03-14T07:28:35;5.83;;;3.40;;
8333;SDS011;4204;43.004;23.052;2023-03-14T07:31:08;7.13;;;3.37;;
8333;SDS011;4204;43.004;23.052;2023-03-14T07:33:37;3.70;;;3.30;;
8333;SDS011;4204;43.004;23.052;2023-03-14T07:36:05;6.73;;;3.80;;
8333;SDS011;4204;43.004;23.052;2023-03-14T07:38:34;4.57;;;3.27;;
8333;SDS011;4204;43.004;23.052;2023-03-14T07:41:12;8.17;;;3.57;;
8333;SDS011;4204;43.004;23.052;2023-03-14T07:43:49;6.77;;;3.50;;
8333;SDS011;4204;43.004;23.052;2023-03-14T07:46:17;4.43;;;3.43;;
8333;SDS011;4204;43.004;23.052;2023-03-14T07:48:45;9.33;;;3.57;;
8333;SDS011;4204;43.004;23.052;2023-03-14T07:51:13;5.60;;;3.33;;
8333;SDS011;4204;43.004;23.052;2023-03-14T07:53:41;4.37;;;3.40;;
8333;SDS011;4204;43.004;23.052;2023-03-14T07:56:09;6.40;;;3.37;;
8333;SDS011;4204;43.004;23.052;2023-03-14T07:58:37;5.10;;;3.90;;
8333;SDS011;4204;43.004;23.052;2023-03-14T08:01:06;7.07;;;3.70;;
8333;SDS011;4204;43.004;23.052;2023-03-14T08:03:34;7.73;;;3.57;;
8333;SDS011;4204;43.004;23.052;2023-03-14T08:06:02;6.93;;;4.03;;
8333;SDS011;4204;43.004;23.052;2023-03-14T08:08:30;8.37;;;5.43;;
8333;SDS011;4204;43.004;23.052;2023-03-14T08:11:01;5.53;;;4.07;;
8333;SDS011;4204;43.004;23.052;2023-03-14T08:13:30;5.90;;;3.30;;
8333;SDS011;4204;43.004;23.052;2023-03-14T08:15:57;4.40;;;3.37;;
8333;SDS011;4204;43.004;23.052;2023-03-14T08:18:27;4.63;;;3.50;;
8333;SDS011;4204;43.004;23.052;2023-03-14T08:20:54;4.97;;;3.40;;
8333;SDS011;4204;43.004;23.052;2023-03-14T08:23:22;6.07;;;3.53;;
8333;SDS011;4204;43.004;23.052;2023-03-14T08:25:50;4.53;;;3.30;;
8333;SDS011;4204;43.004;23.052;2023-03-14T08:28:18;6.67;;;3.43;;
8333;SDS011;4204;43.004;23.052;2023-03-14T08:30:46;4.63;;;3.43;;
8333;SDS011;4204;43.004;23.052;2023-03-14T08:33:14;7.17;;;3.33;;
8333;SDS011;4204;43.004;23.052;2023-03-14T08:35:43;5.27;;;3.80;;
8333;SDS011;4204;43.004;23.052;2023-03-14T08:38:14;5.70;;;3.60;;
8333;SDS011;4204;43.004;23.052;2023-03-14T08:40:42;6.00;;;3.60;;
8333;SDS011;4204;43.004;23.052;2023-03-14T08:43:10;5.43;;;3.40;;
8333;SDS011;4204;43.004;23.052;2023-03-14T08:45:37;5.20;;;3.90;;
8333;SDS011;4204;43.004;23.052;2023-03-14T08:48:05;7.67;;;3.50;;
8333;SDS011;4204;43.004;23.052;2023-03-14T08:50:33;4.70;;;3.20;;
8333;SDS011;4204;43.004;23.052;2023-03-14T08:53:02;4.57;;;3.27;;
8333;SDS011;4204;43.004;23.052;2023-03-14T08:55:30;3.83;;;3.17;;
8333;SDS011;4204;43.004;23.052;2023-03-14T08:57:58;6.03;;;3.03;;
8333;SDS011;4204;43.004;23.052;2023-03-14T09:00:25;8.37;;;3.37;;
8333;SDS011;4204;43.004;23.052;2023-03-14T09:02:53;5.23;;;3.20;;
8333;SDS011;4204;43.004;23.052;2023-03-14T09:05:21;3.27;;;2.97;;
8333;SDS011;4204;43.004;23.052;2023-03-14T09:07:49;3.50;;;3.13;;
8333;SDS011;4204;43.004;23.052;2023-03-14T09:10:18;3.37;;;3.00;;
8333;SDS011;4204;43.004;23.052;2023-03-14T09:12:46;6.43;;;3.50;;
8333;SDS011;4204;43.004;23.052;2023-03-14T09:15:13;3.93;;;3.33;;
8333;SDS011;4204;43.004;23.052;2023-03-14T09:17:42;6.13;;;3.40;;
8333;SDS011;4204;43.004;23.052;2023-03-14T09:20:10;5.30;;;3.20;;
8333;SDS011;4204;43.004;23.052;2023-03-14T09:22:39;3.90;;;2.97;;
8333;SDS011;4204;43.004;23.052;2023-03-14T09:25:07;4.23;;;3.10;;
8333;SDS011;4204;43.004;23.052;2023-03-14T09:27:37;5.27;;;3.70;;
8333;SDS011;4204;43.004;23.052;2023-03-14T09:30:06;6.17;;;3.47;;
8333;SDS011;4204;43.004;23.052;2023-03-14T09:32:34;5.17;;;3.33;;
8333;SDS011;4204;43.004;23.052;2023-03-14T09:35:02;5.47;;;3.97;;
8333;SDS011;4204;43.004;23.052;2023-03-14T09:37:30;6.27;;;3.30;;
8333;SDS011;4204;43.004;23.052;2023-03-14T09:39:58;6.13;;;3.37;;
8333;SDS011;4204;43.004;23.052;2023-03-14T09:42:26;4.33;;;3.33;;
8333;SDS011;4204;43.004;23.052;2023-03-14T09:44:56;5.53;;;3.43;;
8333;SDS011;4204;43.004;23.052;2023-03-14T09:47:28;6.23;;;4.30;;
8333;SDS011;4204;43.004;23.052;2023-03-14T09:49:57;4.90;;;3.27;;
8333;SDS011;4204;43.004;23.052;2023-03-14T09:52:26;3.67;;;3.23;;
8333;SDS011;4204;43.004;23.052;2023-03-14T09:54:58;4.47;;;3.30;;
8333;SDS011;4204;43.004;23.052;2023-03-14T09:57:29;4.00;;;3.20;;
8333;SDS011;4204;43.004;23.052;2023-03-14T10:00:03;4.00;;;3.27;;
8333;SDS011;4204;43.004;23.052;2023-03-14T10:02:40;5.63;;;3.50;;
8333;SDS011;4204;43.004;23.052;2023-03-14T10:05:20;4.13;;;3.70;;
8333;SDS011;4204;43.004;23.052;2023-03-14T10:07:50;4.00;;;3.57;;
8333;SDS011;4204;43.004;23.052;2023-03-14T10:10:19;5.07;;;3.27;;
8333;SDS011;4204;43.004;23.052;2023-03-14T10:12:54;6.47;;;3.70;;
8333;SDS011;4204;43.004;23.052;2023-03-14T10:15:25;6.53;;;3.77;;
8333;SDS011;4204;43.004;23.052;2023-03-14T10:17:54;5.80;;;3.67;;
8333;SDS011;4204;43.004;23.052;2023-03-14T10:20:26;4.73;;;3.93;;
8333;SDS011;4204;43.004;23.052;2023-03-14T10:22:59;4.93;;;3.60;;
8333;SDS011;4204;43.004;23.052;2023-03-14T10:25:29;4.63;;;3.40;;
8333;SDS011;4204;43.004;23.052;2023-03-14T10:27:59;5.37;;;3.97;;
8333;SDS011;4204;43.004;23.052;2023-03-14T10:30:40;4.60;;;3.50;;
8333;SDS011;4204;43.004;23.052;2023-03-14T10:33:15;5.63;;;4.30;;
8333;SDS011;4204;43.004;23.052;2023-03-14T10:35:51;7.87;;;4.53;;
8333;SDS011;4204;43.004;23.052;2023-03-14T10:38:22;6.53;;;3.73;;
8333;SDS011;4204;43.004;23.052;2023-03-14T10:40:52;4.83;;;4.00;;
8333;SDS011;4204;43.004;23.052;2023-03-14T10:43:22;4.30;;;3.67;;
8333;SDS011;4204;43.004;23.052;2023-03-14T10:45:55;4.70;;;3.83;;
8333;SDS011;4204;43.004;23.052;2023-03-14T10:48:29;4.10;;;3.33;;
8333;SDS011;4204;43.004;23.052;2023-03-14T10:51:02;6.50;;;4.47;;
8333;SDS011;4204;43.004;23.052;2023-03-14T10:53:32;4.90;;;3.53;;
8333;SDS011;4204;43.004;23.052;2023-03-14T10:56:02;6.07;;;3.50;;
8333;SDS011;4204;43.004;23.052;2023-03-14T10:58:33;4.90;;;3.57;;
8333;SDS011;4204;43.004;23.052;2023-03-14T11:01:11;4.23;;;3.43;;
8333;SDS011;4204;43.004;23.052;2023-03-14T11:03:57;4.07;;;3.60;;
8333;SDS011;4204;43.004;23.052;2023-03-14T11:06:33;6.73;;;3.80;;
8333;SDS011;4204;43.004;23.052;2023-03-14T11:09:07;5.50;;;3.73;;
8333;SDS011;4204;43.004;23.052;2023-03-14T11:11:44;4.27;;;3.67;;
8333;SDS011;4204;43.004;23.052;2023-03-14T11:14:16;5.20;;;3.43;;
8333;SDS011;4204;43.004;23.052;2023-03-14T11:16:53;5.77;;;3.70;;
8333;SDS011;4204;43.004;23.052;2023-03-14T11:19:39;4.23;;;3.70;;
8333;SDS011;4204;43.004;23.052;2023-03-14T11:22:24;4.30;;;3.70;;
8333;SDS011;4204;43.004;23.052;2023-03-14T11:25:02;4.87;;;3.67;;
8333;SDS011;4204;43.004;23.052;2023-03-14T11:27:40;6.00;;;3.90;;
8333;SDS011;4204;43.004;23.052;2023-03-14T11:30:17;4.13;;;3.70;;
8333;SDS011;4204;43.004;23.052;2023-03-14T11:32:50;4.70;;;3.47;;
8333;SDS011;4204;43.004;23.052;2023-03-14T11:35:27;7.17;;;3.50;;
8333;SDS011;4204;43.004;23.052;2023-03-14T11:38:00;5.03;;;3.40;;
8333;SDS011;4204;43.004;23.052;2023-03-14T11:40:37;3.87;;;3.40;;
8333;SDS011;4204;43.004;23.052;2023-03-14T11:43:11;4.00;;;3.60;;
8333;SDS011;4204;43.004;23.052;2023-03-14T11:45:42;6.00;;;3.50;;
8333;SDS011;4204;43.004;23.052;2023-03-14T11:48:15;4.63;;;3.27;;
8333;SDS011;4204;43.004;23.052;2023-03-14T11:50:50;5.30;;;3.63;;
8333;SDS011;4204;43.004;23.052;2023-03-14T11:53:21;4.20;;;3.43;;
8333;SDS011;4204;43.004;23.052;2023-03-14T11:56:00;5.87;;;4.23;;
8333;SDS011;4204;43.004;23.052;2023-03-14T11:58:29;8.20;;;3.70;;
8333;SDS011;4204;43.004;23.052;2023-03-14T12:01:01;7.07;;;3.70;;
8333;SDS011;4204;43.004;23.052;2023-03-14T12:03:38;7.27;;;3.43;;
8333;SDS011;4204;43.004;23.052;2023-03-14T12:06:13;3.83;;;3.23;;
8333;SDS011;4204;43.004;23.052;2023-03-14T12:08:47;6.03;;;3.60;;
8333;SDS011;4204;43.004;23.052;2023-03-14T12:11:20;5.30;;;3.57;;
8333;SDS011;4204;43.004;23.052;2023-03-14T12:13:53;4.13;;;3.30;;
8333;SDS011;4204;43.004;23.052;2023-03-14T12:16:32;6.60;;;2.90;;
8333;SDS011;4204;43.004;23.052;2023-03-14T12:22:18;5.77;;;3.40;;
8333;SDS011;4204;43.004;23.052;2023-03-14T12:24:54;4.10;;;3.40;;
8333;SDS011;4204;43.004;23.052;2023-03-14T12:27:46;4.43;;;3.53;;
8333;SDS011;4204;43.004;23.052;2023-03-14T12:30:18;4.23;;;3.20;;
8333;SDS011;4204;43.004;23.052;2023-03-14T12:35:41;5.37;;;3.10;;
8333;SDS011;4204;43.004;23.052;2023-03-14T12:38:12;5.93;;;3.37;;
8333;SDS011;4204;43.004;23.052;2023-03-14T12:40:47;6.40;;;3.43;;
8333;SDS011;4204;43.004;23.052;2023-03-14T12:43:25;5.00;;;3.90;;
8333;SDS011;4204;43.004;23.052;2023-03-14T12:46:08;3.77;;;3.37;;
8333;SDS011;4204;43.004;23.052;2023-03-14T12:48:47;6.93;;;4.63;;
8333;SDS011;4204;43.004;23.052;2023-03-14T12:51:18;4.80;;;3.43;;
8333;SDS011;4204;43.004;23.052;2023-03-14T12:56:57;4.67;;;3.33;;
8333;SDS011;4204;43.004;23.052;2023-03-14T12:59:32;5.40;;;3.87;;
8333;SDS011;4204;43.004;23.052;2023-03-14T13:02:13;7.93;;;5.10;;
8333;SDS011;4204;43.004;23.052;2023-03-14T13:04:47;9.43;;;3.90;;
8333;SDS011;4204;43.004;23.052;2023-03-14T13:07:34;8.17;;;5.40;;
8333;SDS011;4204;43.004;23.052;2023-03-14T13:10:24;6.37;;;4.60;;
8333;SDS011;4204;43.004;23.052;2023-03-14T13:12:54;7.63;;;4.63;;
8333;SDS011;4204;43.004;23.052;2023-03-14T13:15:24;7.70;;;4.90;;
8333;SDS011;4204;43.004;23.052;2023-03-14T13:17:59;8.60;;;4.33;;
8333;SDS011;4204;43.004;23.052;2023-03-14T13:20:31;5.50;;;3.70;;
8333;SDS011;4204;43.004;23.052;2023-03-14T13:23:02;6.37;;;3.90;;
8333;SDS011;4204;43.004;23.052;2023-03-14T13:25:34;5.03;;;4.03;;
8333;SDS011;4204;43.004;23.052;2023-03-14T13:28:03;7.13;;;3.80;;
8333;SDS011;4204;43.004;23.052;2023-03-14T13:30:35;5.47;;;3.70;;
8333;SDS011;4204;43.004;23.052;2023-03-14T13:33:11;5.97;;;3.60;;
8333;SDS011;4204;43.004;23.052;2023-03-14T13:35:41;5.30;;;4.20;;
8333;SDS011;4204;43.004;23.052;2023-03-14T13:38:15;7.53;;;4.50;;
8333;SDS011;4204;43.004;23.052;2023-03-14T13:40:46;6.27;;;4.27;;
8333;SDS011;4204;43.004;23.052;2023-03-14T13:43:17;5.57;;;4.27;;
8333;SDS011;4204;43.004;23.052;2023-03-14T13:45:51;5.27;;;4.30;;
8333;SDS011;4204;43.004;23.052;2023-03-14T13:48:21;4.77;;;4.07;;
8333;SDS011;4204;43.004;23.052;2023-03-14T13:50:53;7.97;;;4.53;;
8333;SDS011;4204;43.004;23.052;2023-03-14T13:53:23;6.83;;;4.30;;
8333;SDS011;4204;43.004;23.052;2023-03-14T13:55:52;5.30;;;3.93;;
8333;SDS011;4204;43.004;23.052;2023-03-14T13:58:22;6.07;;;4.00;;
8333;SDS011;4204;43.004;23.052;2023-03-14T14:00:56;8.47;;;4.03;;
8333;SDS011;4204;43.004;23.052;2023-03-14T14:03:26;5.57;;;3.97;;
8333;SDS011;4204;43.004;23.052;2023-03-14T14:05:57;6.60;;;4.13;;
8333;SDS011;4204;43.004;23.052;2023-03-14T14:08:25;4.90;;;3.97;;
8333;SDS011;4204;43.004;23.052;2023-03-14T14:10:57;5.77;;;3.63;;
8333;SDS011;4204;43.004;23.052;2023-03-14T14:13:27;6.37;;;4.20;;
8333;SDS011;4204;43.004;23.052;2023-03-14T14:15:59;7.37;;;3.80;;
8333;SDS011;4204;43.004;23.052;2023-03-14T14:18:30;8.37;;;4.47;;
8333;SDS011;4204;43.004;23.052;2023-03-14T14:20:59;5.40;;;3.60;;
8333;SDS011;4204;43.004;23.052;2023-03-14T14:23:28;5.33;;;3.83;;
8333;SDS011;4204;43.004;23.052;2023-03-14T14:25:59;7.97;;;3.30;;
8333;SDS011;4204;43.004;23.052;2023-03-14T14:28:28;4.60;;;3.53;;
8333;SDS011;4204;43.004;23.052;2023-03-14T14:31:02;4.10;;;3.10;;
8333;SDS011;4204;43.004;23.052;2023-03-14T14:33:45;7.77;;;2.90;;
8333;SDS011;4204;43.004;23.052;2023-03-14T14:36:15;4.93;;;3.57;;
8333;SDS011;4204;43.004;23.052;2023-03-14T14:38:50;3.93;;;3.30;;
8333;SDS011;4204;43.004;23.052;2023-03-14T14:41:20;4.23;;;3.27;;
8333;SDS011;4204;43.004;23.052;2023-03-14T14:43:48;4.03;;;3.10;;
8333;SDS011;4204;43.004;23.052;2023-03-14T14:46:19;4.27;;;2.90;;
8333;SDS011;4204;43.004;23.052;2023-03-14T14:48:47;3.60;;;2.90;;
8333;SDS011;4204;43.004;23.052;2023-03-14T14:51:25;4.00;;;3.40;;
8333;SDS011;4204;43.004;23.052;2023-03-14T14:54:09;4.20;;;3.43;;
8333;SDS011;4204;43.004;23.052;2023-03-14T14:56:44;5.37;;;3.23;;
8333;SDS011;4204;43.004;23.052;2023-03-14T14:59:18;5.27;;;3.57;;
8333;SDS011;4204;43.004;23.052;2023-03-14T15:01:49;3.10;;;2.67;;
8333;SDS011;4204;43.004;23.052;2023-03-14T15:04:17;2.90;;;2.63;;
8333;SDS011;4204;43.004;23.052;2023-03-14T15:06:46;4.47;;;2.90;;
8333;SDS011;4204;43.004;23.052;2023-03-14T15:09:16;3.50;;;2.83;;
8333;SDS011;4204;43.004;23.052;2023-03-14T15:11:45;3.63;;;3.20;;
8333;SDS011;4204;43.004;23.052;2023-03-14T15:14:13;6.20;;;2.80;;
8333;SDS011;4204;43.004;23.052;2023-03-14T15:16:41;4.63;;;2.93;;
8333;SDS011;4204;43.004;23.052;2023-03-14T15:19:10;3.23;;;2.80;;
8333;SDS011;4204;43.004;23.052;2023-03-14T15:21:42;4.07;;;2.27;;
8333;SDS011;4204;43.004;23.052;2023-03-14T15:24:10;3.90;;;3.30;;
8333;SDS011;4204;43.004;23.052;2023-03-14T15:26:39;5.43;;;2.80;;
8333;SDS011;4204;43.004;23.052;2023-03-14T15:29:09;6.30;;;3.40;;
8333;SDS011;4204;43.004;23.052;2023-03-14T15:31:38;2.97;;;2.50;;
8333;SDS011;4204;43.004;23.052;2023-03-14T15:34:07;4.07;;;2.53;;
8333;SDS011;4204;43.004;23.052;2023-03-14T15:36:36;5.70;;;2.97;;
8333;SDS011;4204;43.004;23.052;2023-03-14T15:39:05;4.30;;;3.00;;